createdAt,value
2022-12-25T00:01:27.265Z,99.90
2022-12-25T00:03:55.956Z,99.90
2022-12-25T00:06:24.827Z,99.90
2022-12-25T00:08:53.306Z,99.90
2022-12-25T00:11:22.030Z,99.90
2022-12-25T00:13:51.725Z,99.90
2022-12-25T00:16:22.035Z,99.90
2022-12-25T00:18:51.362Z,99.90
2022-12-25T00:21:20.913Z,1.30
2022-12-25T00:23:49.274Z,1.00
2022-12-25T00:26:19.030Z,1.00
2022-12-25T00:28:47.776Z,1.00
2022-12-25T00:31:19.607Z,1.00
2022-12-25T00:33:49.370Z,99.90
2022-12-25T00:36:19.624Z,1.00
2022-12-25T00:38:48.696Z,1.00
2022-12-25T00:41:38.743Z,1.00
2022-12-25T00:44:07.393Z,1.00
2022-12-25T00:46:44.243Z,1.00
2022-12-25T00:49:14.236Z,99.90
2022-12-25T00:51:42.715Z,99.90
2022-12-25T00:54:10.936Z,1.00
2022-12-25T00:56:40.222Z,1.00
2022-12-25T00:59:08.792Z,1.00
2022-12-25T01:01:40.233Z,99.90
2022-12-25T01:04:08.902Z,99.90
2022-12-25T01:06:37.591Z,1.00
2022-12-25T01:09:23.654Z,1.00
2022-12-25T01:11:51.861Z,99.90
2022-12-25T01:14:20.153Z,99.90
2022-12-25T01:16:49.999Z,1.00
2022-12-25T01:19:18.628Z,98.80
2022-12-25T01:21:46.896Z,1.00
2022-12-25T01:24:15.118Z,99.90
2022-12-25T01:26:43.350Z,99.90
2022-12-25T01:29:11.647Z,1.00
2022-12-25T01:31:40.119Z,1.00
2022-12-25T01:34:09.759Z,1.00
2022-12-25T01:36:38.047Z,1.00
2022-12-25T01:39:06.474Z,1.00
2022-12-25T01:41:34.851Z,1.00
2022-12-25T01:44:06.717Z,99.90
2022-12-25T01:46:35.908Z,99.90
2022-12-25T01:49:06.765Z,99.90
2022-12-25T01:51:40.871Z,99.90
2022-12-25T01:54:13.717Z,12.80
2022-12-25T01:56:43.669Z,1.00
2022-12-25T01:59:13.178Z,1.00
2022-12-25T02:01:42.069Z,1.00
2022-12-25T02:04:38.729Z,1.00
2022-12-25T02:07:11.564Z,1.00
2022-12-25T02:09:40.044Z,1.00
2022-12-25T02:12:10.918Z,1.00
2022-12-25T02:14:39.605Z,1.00
2022-12-25T02:17:18.379Z,1.00
2022-12-25T02:20:07.351Z,1.00
2022-12-25T02:22:50.017Z,1.00
2022-12-25T02:25:34.956Z,1.00
2022-12-25T02:28:12.154Z,1.00
2022-12-25T02:30:44.185Z,1.00
2022-12-25T02:33:35.052Z,1.00
2022-12-25T02:36:08.446Z,1.00
2022-12-25T02:39:00.863Z,1.00
2022-12-25T02:41:31.911Z,1.00
2022-12-25T02:44:21.827Z,1.00
2022-12-25T02:47:11.046Z,99.90
2022-12-25T02:49:58.861Z,99.90
2022-12-25T02:52:49.047Z,99.90
2022-12-25T02:55:38.777Z,99.90
2022-12-25T02:58:28.208Z,99.90
2022-12-25T03:01:21.831Z,99.90
2022-12-25T03:04:22.419Z,99.90
2022-12-25T03:07:07.470Z,99.90
2022-12-25T03:09:58.146Z,99.90
2022-12-25T03:12:42.089Z,99.90
2022-12-25T03:15:29.470Z,99.90
2022-12-25T03:18:02.963Z,99.90
2022-12-25T03:20:49.465Z,99.90
2022-12-25T03:23:54.543Z,99.90
2022-12-25T03:26:40.490Z,99.90
2022-12-25T03:29:08.725Z,99.90
2022-12-25T03:31:44.023Z,99.90
2022-12-25T03:34:45.832Z,99.90
2022-12-25T03:37:53.393Z,99.90
2022-12-25T03:40:47.525Z,99.90
2022-12-25T03:43:40.380Z,99.90
2022-12-25T03:46:32.591Z,99.90
2022-12-25T03:49:25.931Z,99.90
2022-12-25T03:52:14.515Z,99.90
2022-12-25T03:55:02.621Z,99.90
2022-12-25T03:57:51.498Z,99.90
2022-12-25T04:00:36.724Z,99.90
2022-12-25T04:03:22.710Z,99.90
2022-12-25T04:06:08.390Z,99.90
2022-12-25T04:08:55.135Z,99.90
2022-12-25T04:11:41.015Z,99.90
2022-12-25T04:14:26.709Z,99.90
2022-12-25T04:17:12.135Z,99.90
2022-12-25T04:19:57.878Z,99.90
2022-12-25T04:22:43.548Z,99.90
2022-12-25T04:25:30.975Z,99.90
2022-12-25T04:28:20.225Z,99.90
2022-12-25T04:31:06.286Z,99.90
2022-12-25T04:33:52.206Z,99.90
2022-12-25T04:36:20.452Z,99.90
2022-12-25T04:38:49.146Z,99.90
2022-12-25T04:41:18.937Z,99.90
2022-12-25T04:43:47.146Z,99.90
2022-12-25T04:46:15.419Z,99.90
2022-12-25T04:48:43.724Z,99.90
2022-12-25T04:51:17.133Z,99.90
2022-12-25T04:53:52.507Z,99.90
2022-12-25T04:56:22.624Z,99.90
2022-12-25T04:58:51.114Z,99.90
2022-12-25T05:01:19.487Z,99.90
2022-12-25T05:03:49.465Z,99.90
2022-12-25T05:06:17.828Z,99.90
2022-12-25T05:08:46.154Z,99.90
2022-12-25T05:11:16.646Z,99.90
2022-12-25T05:13:46.530Z,99.90
2022-12-25T05:16:17.428Z,99.90
2022-12-25T05:18:46.313Z,99.90
2022-12-25T05:21:14.654Z,99.90
2022-12-25T05:23:48.547Z,99.90
2022-12-25T05:26:20.126Z,99.90
2022-12-25T05:28:50.618Z,99.90
2022-12-25T05:31:19.201Z,99.90
2022-12-25T05:33:50.044Z,99.90
2022-12-25T05:36:18.784Z,99.90
2022-12-25T05:38:47.115Z,99.90
2022-12-25T05:41:15.529Z,99.90
2022-12-25T05:43:43.840Z,99.90
2022-12-25T05:46:15.504Z,99.90
2022-12-25T05:48:43.817Z,99.90
2022-12-25T05:51:14.001Z,99.90
2022-12-25T05:53:43.032Z,99.90
2022-12-25T05:56:11.816Z,99.90
2022-12-25T05:58:40.758Z,99.90
2022-12-25T06:01:14.932Z,99.90
2022-12-25T06:03:43.432Z,99.90
2022-12-25T06:06:12.734Z,99.90
2022-12-25T06:08:41.012Z,99.90
2022-12-25T06:11:10.401Z,99.90
2022-12-25T06:13:39.320Z,99.90
2022-12-25T06:16:09.556Z,99.90
2022-12-25T06:18:40.521Z,99.90
2022-12-25T06:21:09.537Z,99.90
2022-12-25T06:23:38.631Z,99.90
2022-12-25T06:26:08.195Z,99.90
2022-12-25T06:28:38.068Z,99.90
2022-12-25T06:31:10.411Z,99.90
2022-12-25T06:33:40.571Z,99.90
2022-12-25T06:36:09.917Z,99.90
2022-12-25T06:38:38.395Z,99.90
2022-12-25T06:41:08.669Z,99.90
2022-12-25T06:43:37.029Z,99.90
2022-12-25T06:46:06.158Z,99.90
2022-12-25T06:48:35.548Z,99.90
2022-12-25T06:51:06.370Z,99.90
2022-12-25T06:53:40.544Z,99.90
2022-12-25T06:56:20.187Z,99.90
2022-12-25T06:58:54.065Z,99.90
2022-12-25T07:01:25.387Z,99.90
2022-12-25T07:03:56.351Z,99.90
2022-12-25T07:06:26.434Z,99.90
2022-12-25T07:08:55.264Z,99.90
2022-12-25T07:11:24.124Z,99.90
2022-12-25T07:13:52.597Z,99.90
2022-12-25T07:16:21.503Z,99.90
2022-12-25T07:18:49.792Z,99.90
2022-12-25T07:21:19.763Z,99.90
2022-12-25T07:23:51.466Z,99.90
2022-12-25T07:26:20.078Z,99.90
2022-12-25T07:28:48.581Z,99.90
2022-12-25T07:31:18.377Z,99.90
2022-12-25T07:33:46.884Z,99.90
2022-12-25T07:36:16.814Z,99.90
2022-12-25T07:38:45.875Z,96.90
2022-12-25T07:41:15.475Z,95.80
2022-12-25T07:43:43.875Z,97.80
2022-12-25T07:46:12.572Z,95.90
2022-12-25T07:48:40.807Z,93.80
2022-12-25T07:51:13.174Z,91.20
2022-12-25T07:53:41.879Z,81.30
2022-12-25T07:56:13.140Z,69.20
2022-12-25T07:58:42.967Z,58.70
2022-12-25T08:01:13.912Z,30.10
2022-12-25T08:03:42.274Z,22.90
2022-12-25T08:06:12.254Z,22.20
2022-12-25T08:08:42.276Z,26.40
2022-12-25T08:11:11.185Z,22.90
2022-12-25T08:13:40.256Z,14.40
2022-12-25T08:16:12.257Z,6.10
2022-12-25T08:18:43.222Z,1.00
2022-12-25T08:21:13.749Z,1.00
2022-12-25T08:23:43.990Z,1.00
2022-12-25T08:26:15.435Z,1.00
2022-12-25T08:28:43.898Z,1.00
2022-12-25T08:31:17.217Z,1.00
2022-12-25T08:33:46.205Z,1.00
2022-12-25T08:36:14.862Z,1.00
2022-12-25T08:38:43.648Z,1.00
2022-12-25T08:41:13.377Z,1.00
2022-12-25T08:43:42.232Z,1.00
2022-12-25T08:46:11.197Z,1.00
2022-12-25T08:48:43.258Z,1.00
2022-12-25T08:51:14.591Z,1.00
2022-12-25T08:53:43.330Z,1.00
2022-12-25T08:56:12.217Z,1.00
2022-12-25T08:58:40.958Z,1.00
2022-12-25T09:01:09.869Z,1.00
2022-12-25T09:03:38.323Z,1.00
2022-12-25T09:06:10.426Z,1.00
2022-12-25T09:08:46.206Z,1.00
2022-12-25T09:11:18.040Z,1.00
2022-12-25T09:13:46.322Z,1.00
2022-12-25T09:16:16.801Z,1.00
2022-12-25T09:18:48.919Z,1.00
2022-12-25T09:21:23.746Z,1.00
2022-12-25T09:23:52.467Z,1.00
2022-12-25T09:26:21.567Z,1.00
2022-12-25T09:28:52.637Z,1.00
2022-12-25T09:31:22.267Z,1.00
2022-12-25T09:33:51.113Z,1.00
2022-12-25T09:36:23.583Z,1.00
2022-12-25T09:38:52.075Z,1.00
2022-12-25T09:41:28.457Z,1.00
2022-12-25T09:44:00.942Z,1.00
2022-12-25T09:46:37.032Z,1.00
2022-12-25T09:52:56.506Z,1.00
2022-12-25T09:55:27.023Z,1.00
2022-12-25T09:57:57.608Z,1.00
2022-12-25T10:00:30.278Z,1.00
2022-12-25T10:03:24.572Z,1.00
2022-12-25T10:06:03.360Z,1.00
2022-12-25T10:09:01.107Z,1.00
2022-12-25T10:11:43.195Z,1.00
2022-12-25T10:14:22.197Z,1.00
2022-12-25T10:17:03.670Z,1.00
2022-12-25T10:19:43.673Z,1.00
2022-12-25T10:22:20.507Z,1.00
2022-12-25T10:24:56.315Z,1.00
2022-12-25T10:27:32.614Z,1.00
2022-12-25T10:30:02.549Z,1.00
2022-12-25T10:32:30.795Z,1.00
2022-12-25T10:34:59.035Z,1.00
2022-12-25T10:37:35.319Z,1.00
2022-12-25T10:40:21.401Z,1.00
2022-12-25T10:42:54.331Z,1.00
2022-12-25T10:45:25.008Z,1.00
2022-12-25T10:48:12.954Z,1.00
2022-12-25T10:51:00.098Z,1.00
2022-12-25T10:53:42.812Z,1.00
2022-12-25T10:56:25.002Z,1.00
2022-12-25T10:59:09.637Z,1.00
2022-12-25T11:01:39.709Z,1.00
2022-12-25T11:04:20.330Z,1.00
2022-12-25T11:07:01.823Z,1.00
2022-12-25T11:09:30.441Z,1.00
2022-12-25T11:12:00.857Z,1.00
2022-12-25T11:14:31.072Z,1.00
2022-12-25T11:17:14.631Z,1.00
2022-12-25T11:19:59.759Z,1.00
2022-12-25T11:22:29.066Z,1.00
2022-12-25T11:24:57.440Z,1.00
2022-12-25T11:27:30.791Z,1.00
2022-12-25T11:30:00.998Z,1.00
2022-12-25T11:32:32.581Z,1.00
2022-12-25T11:35:02.683Z,1.00
2022-12-25T11:37:36.661Z,1.00
2022-12-25T11:40:07.278Z,1.00
2022-12-25T11:42:39.358Z,1.00
2022-12-25T11:45:17.991Z,1.00
2022-12-25T11:47:54.600Z,1.00
2022-12-25T11:50:31.626Z,1.00
2022-12-25T11:53:02.410Z,1.00
2022-12-25T11:55:39.075Z,1.00
2022-12-25T11:58:18.502Z,1.00
2022-12-25T12:00:49.743Z,1.00
2022-12-25T12:03:28.017Z,1.00
2022-12-25T12:06:07.192Z,1.00
2022-12-25T12:08:45.145Z,1.00
2022-12-25T12:11:20.708Z,1.00
2022-12-25T12:14:03.866Z,1.00
2022-12-25T12:16:32.423Z,1.00
2022-12-25T12:19:13.021Z,1.00
2022-12-25T12:21:44.399Z,1.00
2022-12-25T12:24:15.305Z,1.00
2022-12-25T12:26:46.603Z,1.00
2022-12-25T12:29:27.379Z,1.00
2022-12-25T12:32:01.173Z,1.00
2022-12-25T12:34:31.752Z,1.00
2022-12-25T12:37:05.242Z,1.00
2022-12-25T12:39:38.842Z,1.00
2022-12-25T12:42:15.978Z,1.00
2022-12-25T12:44:48.775Z,1.00
2022-12-25T12:47:34.747Z,1.00
2022-12-25T12:50:03.486Z,1.00
2022-12-25T12:52:37.313Z,1.00
2022-12-25T12:55:09.157Z,1.00
2022-12-25T12:57:40.760Z,1.00
2022-12-25T13:00:25.417Z,1.00
2022-12-25T13:03:17.638Z,1.00
2022-12-25T13:05:55.301Z,1.00
2022-12-25T13:08:42.939Z,1.00
2022-12-25T13:11:23.443Z,1.00
2022-12-25T13:13:53.995Z,1.00
2022-12-25T13:16:31.212Z,1.00
2022-12-25T13:19:01.948Z,1.00
2022-12-25T13:21:32.511Z,1.00
2022-12-25T13:24:02.615Z,1.00
2022-12-25T13:26:32.516Z,1.00
2022-12-25T13:29:06.443Z,1.00
2022-12-25T13:31:51.848Z,1.00
2022-12-25T13:34:33.528Z,1.00
2022-12-25T13:37:09.640Z,1.00
2022-12-25T13:39:58.506Z,1.00
2022-12-25T13:42:33.115Z,1.00
2022-12-25T13:45:06.524Z,1.00
2022-12-25T13:47:37.905Z,1.00
2022-12-25T13:50:24.071Z,1.00
2022-12-25T13:52:53.818Z,1.00
2022-12-25T13:55:24.113Z,1.00
2022-12-25T13:57:57.911Z,1.00
2022-12-25T14:00:35.405Z,1.00
2022-12-25T14:03:07.491Z,1.00
2022-12-25T14:05:42.746Z,1.00
2022-12-25T14:08:17.822Z,1.00
2022-12-25T14:10:50.716Z,1.00
2022-12-25T14:13:21.784Z,1.00
2022-12-25T14:15:53.986Z,1.00
2022-12-25T14:18:27.086Z,1.00
2022-12-25T14:21:07.067Z,1.00
2022-12-25T14:23:43.104Z,1.00
2022-12-25T14:26:23.114Z,1.00
2022-12-25T14:28:55.632Z,1.00
2022-12-25T14:31:34.222Z,1.00
2022-12-25T14:34:25.165Z,1.00
2022-12-25T14:37:00.421Z,1.00
2022-12-25T14:39:38.126Z,1.00
2022-12-25T14:42:19.856Z,1.00
2022-12-25T14:45:11.860Z,1.00
2022-12-25T14:47:52.564Z,1.00
2022-12-25T14:50:30.698Z,1.00
2022-12-25T14:53:04.192Z,1.00
2022-12-25T14:55:32.564Z,1.00
2022-12-25T14:58:05.237Z,1.00
2022-12-25T15:00:37.112Z,1.00
2022-12-25T15:03:08.589Z,1.00
2022-12-25T15:05:40.234Z,1.00
2022-12-25T15:08:22.915Z,1.00
2022-12-25T15:11:01.870Z,1.00
2022-12-25T15:13:32.997Z,1.00
2022-12-25T15:16:07.395Z,1.00
2022-12-25T15:18:39.972Z,1.00
2022-12-25T15:21:20.023Z,1.00
2022-12-25T15:23:49.950Z,1.00
2022-12-25T15:26:18.189Z,1.00
2022-12-25T15:28:47.134Z,1.00
2022-12-25T15:31:22.407Z,1.00
2022-12-25T15:33:50.987Z,1.00
2022-12-25T15:36:21.107Z,1.00
2022-12-25T15:38:49.644Z,1.00
2022-12-25T15:41:43.357Z,1.00
2022-12-25T15:44:15.766Z,1.00
2022-12-25T15:46:46.127Z,1.00
2022-12-25T15:49:16.378Z,1.00
2022-12-25T15:51:51.629Z,1.00
2022-12-25T15:54:23.882Z,1.00
2022-12-25T15:56:55.059Z,1.00
2022-12-25T15:59:24.541Z,1.00
2022-12-25T16:01:54.358Z,1.00
2022-12-25T16:04:24.959Z,1.00
2022-12-25T16:06:55.150Z,1.00
2022-12-25T16:09:23.833Z,1.00
2022-12-25T16:11:58.548Z,1.00
2022-12-25T16:14:32.291Z,1.00
2022-12-25T16:17:06.712Z,1.00
2022-12-25T16:19:42.005Z,1.00
2022-12-25T16:22:24.223Z,1.00
2022-12-25T16:24:53.525Z,1.00
2022-12-25T16:27:25.904Z,1.00
2022-12-25T16:29:54.640Z,1.00
2022-12-25T16:32:24.697Z,1.00
2022-12-25T16:34:53.380Z,1.00
2022-12-25T16:37:23.917Z,1.00
2022-12-25T16:39:54.027Z,1.00
2022-12-25T16:42:25.647Z,1.00
2022-12-25T16:44:54.534Z,1.00
2022-12-25T16:47:23.444Z,1.00
2022-12-25T16:49:52.477Z,1.00
2022-12-25T16:52:22.505Z,1.00
2022-12-25T16:54:53.210Z,1.00
2022-12-25T16:57:24.621Z,1.00
2022-12-25T16:59:58.852Z,1.00
2022-12-25T17:02:27.709Z,1.00
2022-12-25T17:04:56.863Z,1.00
2022-12-25T17:07:27.719Z,1.00
2022-12-25T17:09:58.475Z,1.00
2022-12-25T17:12:26.927Z,1.00
2022-12-25T17:14:55.311Z,1.00
2022-12-25T17:17:23.547Z,1.00
2022-12-25T17:19:51.772Z,1.00
2022-12-25T17:22:23.641Z,1.00
2022-12-25T17:24:58.214Z,1.00
2022-12-25T17:27:29.468Z,1.00
2022-12-25T17:29:59.674Z,1.00
2022-12-25T17:32:27.921Z,1.00
2022-12-25T17:34:56.766Z,1.00
2022-12-25T17:37:25.750Z,1.00
2022-12-25T17:39:55.882Z,1.00
2022-12-25T17:42:24.310Z,1.00
2022-12-25T17:44:57.956Z,1.00
2022-12-25T17:47:26.584Z,1.00
2022-12-25T17:49:56.461Z,1.00
2022-12-25T17:52:28.367Z,1.00
2022-12-25T17:55:02.976Z,1.00
2022-12-25T17:57:32.110Z,1.00
2022-12-25T18:00:04.866Z,1.00
2022-12-25T18:02:34.958Z,1.00
2022-12-25T18:05:16.559Z,1.00
2022-12-25T18:07:47.715Z,1.00
2022-12-25T18:10:19.761Z,1.00
2022-12-25T18:12:49.149Z,1.00
2022-12-25T18:15:20.737Z,1.00
2022-12-25T18:17:51.289Z,1.00
2022-12-25T18:20:19.671Z,1.00
2022-12-25T18:22:48.232Z,1.00
2022-12-25T18:25:22.007Z,1.00
2022-12-25T18:27:55.843Z,1.00
2022-12-25T18:30:30.089Z,1.00
2022-12-25T18:33:01.167Z,1.00
2022-12-25T18:35:30.080Z,1.00
2022-12-25T18:37:58.945Z,1.00
2022-12-25T18:40:28.725Z,1.00
2022-12-25T18:43:02.974Z,1.00
2022-12-25T18:45:32.080Z,1.00
2022-12-25T18:48:03.950Z,1.00
2022-12-25T18:50:32.208Z,1.00
2022-12-25T18:53:00.628Z,1.00
2022-12-25T18:55:30.941Z,1.00
2022-12-25T18:58:03.879Z,1.00
2022-12-25T19:00:32.289Z,1.00
2022-12-25T19:03:05.995Z,1.00
2022-12-25T19:05:41.876Z,1.00
2022-12-25T19:08:12.095Z,1.00
2022-12-25T19:10:54.676Z,1.00
2022-12-25T19:13:23.461Z,1.00
2022-12-25T19:15:52.938Z,1.00
2022-12-25T19:18:30.114Z,1.00
2022-12-25T19:21:07.480Z,1.00
2022-12-25T19:23:38.806Z,1.00
2022-12-25T19:26:12.521Z,1.00
2022-12-25T19:28:41.177Z,1.00
2022-12-25T19:31:11.426Z,1.00
2022-12-25T19:33:41.910Z,1.00
2022-12-25T19:36:14.910Z,1.00
2022-12-25T19:38:43.813Z,1.00
2022-12-25T19:41:16.368Z,1.00
2022-12-25T19:43:51.400Z,1.00
2022-12-25T19:46:30.478Z,1.00
2022-12-25T19:49:04.520Z,1.00
2022-12-25T19:51:35.344Z,1.00
2022-12-25T19:54:04.098Z,1.00
2022-12-25T19:56:34.935Z,1.00
2022-12-25T19:59:03.720Z,1.00
2022-12-25T20:01:33.449Z,1.00
2022-12-25T20:04:02.261Z,1.00
2022-12-25T20:06:34.274Z,1.00
2022-12-25T20:09:05.364Z,1.00
2022-12-25T20:11:37.323Z,1.00
2022-12-25T20:14:10.818Z,1.00
2022-12-25T20:16:44.680Z,1.00
2022-12-25T20:19:22.167Z,1.00
2022-12-25T20:22:10.562Z,1.00
2022-12-25T20:25:00.154Z,1.00
2022-12-25T20:27:32.212Z,1.00
2022-12-25T20:30:01.278Z,1.00
2022-12-25T20:32:31.493Z,1.00
2022-12-25T20:35:00.455Z,1.00
2022-12-25T20:37:29.200Z,1.00
2022-12-25T20:39:58.209Z,1.00
2022-12-25T20:42:27.717Z,1.00
2022-12-25T20:44:59.996Z,1.00
2022-12-25T20:47:29.644Z,1.00
2022-12-25T20:50:01.107Z,1.00
2022-12-25T20:52:43.834Z,1.00
2022-12-25T20:55:17.786Z,1.00
2022-12-25T20:57:47.051Z,1.00
2022-12-25T21:00:17.508Z,1.00
2022-12-25T21:02:46.395Z,1.00
2022-12-25T21:05:15.882Z,1.00
2022-12-25T21:07:47.666Z,1.00
2022-12-25T21:10:18.993Z,1.00
2022-12-25T21:12:49.924Z,1.00
2022-12-25T21:15:24.824Z,1.00
2022-12-25T21:17:56.509Z,1.00
2022-12-25T21:20:24.999Z,99.90
2022-12-25T21:22:53.595Z,99.90
2022-12-25T21:25:22.452Z,99.90
2022-12-25T21:27:51.451Z,99.90
2022-12-25T21:30:21.480Z,1.00
2022-12-25T21:33:11.368Z,99.90
2022-12-25T21:35:40.280Z,89.80
2022-12-25T21:38:08.958Z,76.20
2022-12-25T21:40:39.084Z,97.80
2022-12-25T21:43:08.670Z,92.90
2022-12-25T21:45:37.701Z,80.60
2022-12-25T21:48:08.214Z,91.50
2022-12-25T21:50:54.083Z,72.00
2022-12-25T21:53:25.177Z,67.00
2022-12-25T21:56:02.621Z,19.40
2022-12-25T21:58:31.332Z,1.00
2022-12-25T22:01:06.771Z,1.00
2022-12-25T22:03:37.109Z,1.00
2022-12-25T22:06:23.628Z,1.00
2022-12-25T22:08:52.245Z,1.00
2022-12-25T22:11:37.963Z,1.00
2022-12-25T22:14:52.443Z,1.00
2022-12-25T22:17:45.320Z,1.00
2022-12-25T22:20:20.497Z,1.00
2022-12-25T22:22:51.905Z,1.00
2022-12-25T22:25:21.476Z,1.00
2022-12-25T22:27:51.059Z,1.00
2022-12-25T22:30:22.215Z,1.00
2022-12-25T22:32:50.708Z,1.00
2022-12-25T22:35:21.533Z,1.00
2022-12-25T22:37:49.990Z,1.00
2022-12-25T22:40:21.803Z,1.00
2022-12-25T22:42:50.477Z,1.00
2022-12-25T22:45:19.498Z,1.00
2022-12-25T22:47:48.506Z,1.00
2022-12-25T22:50:17.478Z,1.00
2022-12-25T22:52:47.454Z,1.00
2022-12-25T22:55:20.395Z,1.00
2022-12-25T22:57:49.196Z,1.00
2022-12-25T23:00:18.733Z,1.00
2022-12-25T23:02:50.380Z,1.00
2022-12-25T23:05:19.159Z,1.00
2022-12-25T23:07:49.144Z,1.00
2022-12-25T23:10:20.306Z,1.00
2022-12-25T23:13:06.510Z,1.00
2022-12-25T23:15:35.450Z,1.00
2022-12-25T23:18:21.496Z,1.00
2022-12-25T23:21:09.841Z,1.00
2022-12-25T23:23:57.125Z,29.90
2022-12-25T23:26:25.736Z,99.90
2022-12-25T23:29:12.449Z,95.10
2022-12-25T23:31:42.768Z,1.00
2022-12-25T23:34:11.860Z,1.00
2022-12-25T23:36:40.627Z,1.00
2022-12-25T23:39:11.829Z,1.00
2022-12-25T23:41:44.182Z,1.00
2022-12-25T23:44:13.408Z,1.00
2022-12-25T23:46:52.603Z,1.00
2022-12-25T23:49:22.347Z,1.00
2022-12-25T23:51:50.741Z,1.00
2022-12-25T23:54:22.362Z,99.90
2022-12-25T23:56:51.201Z,1.00
2022-12-25T23:59:20.869Z,99.90
